Time;durP1;ratioP1;P1;durP2;ratioP2;P2;SDS_P1;SDS_P2;PMS_P1;PMS_P2;Temp;Humidity;BMP_temperature;BMP_pressure;BME280_temperature;BME280_humidity;BME280_pressure;Samples;Min_cycle;Max_cycle;Signal;HPM_P1;HPM_P2
2023/04/04 00:00:07;;;;;;;;;;;;;;;5.49;nan;103173.53;5035072;28;19924;-81
2023/04/04 00:02:32;;;;;;;;;;;;;;;5.44;nan;103169.53;5030516;28;19952;-80
2023/04/04 00:04:57;;;;;;;;;;;;;;;5.45;nan;103167.69;5025293;28;19992;-80
2023/04/04 00:07:23;;;;;;;;;;;;;;;5.47;nan;103165.72;5030708;28;20027;-80
2023/04/04 00:09:48;;;;;;;;;;;;;;;5.46;nan;103164.03;5031155;28;19984;-80
2023/04/04 00:12:13;;;;;;;;;;;;;;;5.44;nan;103160.72;5034448;28;19916;-80
2023/04/04 00:14:39;;;;;;;;;;;;;;;5.43;nan;103153.72;5009738;28;19917;-80
2023/04/04 00:17:04;;;;;;;;;;;;;;;5.41;nan;103159.19;5031021;28;20012;-81
2023/04/04 00:19:29;;;;;;;;;;;;;;;5.43;nan;103153.72;5029163;28;20210;-80
2023/04/04 00:21:55;;;;;;;;;;;;;;;5.41;nan;103148.56;5028405;28;19936;-80
2023/04/04 00:24:20;;;;;;;;;;;;;;;5.38;nan;103150.69;5027543;28;19924;-80
2023/04/04 00:26:46;;;;;;;;;;;;;;;5.36;nan;103147.34;5029394;28;20019;-80
2023/04/04 00:29:11;;;;;;;;;;;;;;;5.35;nan;103140.34;5028964;28;19924;-81
2023/04/04 00:31:36;;;;;;;;;;;;;;;5.33;nan;103142.34;5028107;28;19932;-80
2023/04/04 00:34:02;;;;;;;;;;;;;;;5.30;nan;103146.16;5029907;28;19928;-81
2023/04/04 00:36:27;;;;;;;;;;;;;;;5.29;nan;103138.31;5029853;28;19924;-80
2023/04/04 00:38:52;;;;;;;;;;;;;;;5.27;nan;103137.66;5029976;28;20403;-81
2023/04/04 00:41:18;;;;;;;;;;;;;;;5.24;nan;103141.47;5029805;28;19917;-80
2023/04/04 00:43:43;;;;;;;;;;;;;;;5.23;nan;103131.81;5029989;28;19928;-81
2023/04/04 00:46:13;;;;;;;;;;;;;;;5.20;nan;103132.09;5029315;28;19921;-81
2023/04/04 00:48:39;;;;;;;;;;;;;;;5.15;nan;103132.56;5028496;28;20047;-81
2023/04/04 00:51:05;;;;;;;;;;;;;;;5.13;nan;103137.22;5032804;28;20408;-81
2023/04/04 00:53:31;;;;;;;;;;;;;;;5.13;nan;103134.56;5033524;28;19916;-81
2023/04/04 00:55:56;;;;;;;;;;;;;;;5.11;nan;103136.53;5015418;28;19923;-80
2023/04/04 00:58:23;;;;;;;;;;;;;;;5.06;nan;103128.19;5032406;28;19924;-81
2023/04/04 01:00:49;;;;;;;;;;;;;;;5.05;nan;103129.19;5033336;28;19956;-81
2023/04/04 01:03:14;;;;;;;;;;;;;;;5.03;nan;103123.19;5033399;28;20605;-81
2023/04/04 01:05:40;;;;;;;;;;;;;;;4.98;nan;103122.78;5014894;28;19955;-81
2023/04/04 01:08:06;;;;;;;;;;;;;;;4.92;nan;103128.72;5032511;28;19917;-81
2023/04/04 01:10:32;;;;;;;;;;;;;;;4.91;nan;103127.06;5031451;28;19952;-81
2023/04/04 01:12:57;;;;;;;;;;;;;;;4.87;nan;103130.19;5033468;28;20363;-81
2023/04/04 01:15:23;;;;;;;;;;;;;;;4.85;nan;103131.16;5031976;28;19934;-81
2023/04/04 01:17:49;;;;;;;;;;;;;;;4.83;nan;103130.47;5031650;28;21439;-80
2023/04/04 01:20:19;;;;;;;;;;;;;;;4.82;nan;103130.63;5030644;28;19944;-80
2023/04/04 01:22:47;;;;;;;;;;;;;;;4.83;nan;103124.31;5030760;28;19928;-80
2023/04/04 01:25:13;;;;;;;;;;;;;;;4.85;nan;103125.03;5030242;28;19920;-80
2023/04/04 01:27:39;;;;;;;;;;;;;;;4.86;nan;103126.69;5030691;28;20445;-81
2023/04/04 01:30:05;;;;;;;;;;;;;;;4.84;nan;103115.34;5029020;28;20003;-81
2023/04/04 01:32:43;;;;;;;;;;;;;;;4.84;nan;103112.69;5032995;28;19948;-80
2023/04/04 01:35:08;;;;;;;;;;;;;;;4.80;nan;103109.53;5032318;28;19917;-80
2023/04/04 01:37:36;;;;;;;;;;;;;;;4.78;nan;103110.66;5030054;28;19921;-80
2023/04/04 01:40:15;;;;;;;;;;;;;;;4.77;nan;103115.13;5011229;28;20034;-81
2023/04/04 01:42:43;;;;;;;;;;;;;;;4.77;nan;103114.31;5030409;28;19924;-81
2023/04/04 01:45:09;;;;;;;;;;;;;;;4.77;nan;103109.00;5024238;28;19932;-81
2023/04/04 01:47:38;;;;;;;;;;;;;;;4.75;nan;103113.63;5030854;28;20003;-80
2023/04/04 01:50:04;;;;;;;;;;;;;;;4.74;nan;103109.31;5031084;28;20375;-81
2023/04/04 01:52:29;;;;;;;;;;;;;;;4.71;nan;103110.44;5013077;28;19917;-81
2023/04/04 01:54:54;;;;;;;;;;;;;;;4.67;nan;103111.75;5031619;28;19921;-81
2023/04/04 01:57:19;;;;;;;;;;;;;;;4.63;nan;103109.50;5029140;28;20326;-81
2023/04/04 01:59:45;;;;;;;;;;;;;;;4.60;nan;103112.47;5029377;28;19935;-80
2023/04/04 02:02:10;;;;;;;;;;;;;;;4.58;nan;103109.97;5028923;28;21031;-81
2023/04/04 02:04:36;;;;;;;;;;;;;;;4.59;nan;103108.16;5030121;28;19917;-81
2023/04/04 02:07:01;;;;;;;;;;;;;;;4.55;nan;103113.78;5031091;28;20322;-80
2023/04/04 02:09:27;;;;;;;;;;;;;;;4.55;nan;103104.97;5029328;28;20420;-81
2023/04/04 02:11:52;;;;;;;;;;;;;;;4.51;nan;103099.13;5026964;28;20462;-81
2023/04/04 02:14:18;;;;;;;;;;;;;;;4.49;nan;103103.75;5029229;28;19917;-80
2023/04/04 02:16:43;;;;;;;;;;;;;;;4.48;nan;103099.41;5028338;28;19929;-81
2023/04/04 02:19:08;;;;;;;;;;;;;;;4.47;nan;103096.91;5027563;28;20070;-81
2023/04/04 02:21:34;;;;;;;;;;;;;;;4.41;nan;103100.16;5029830;28;19936;-81
2023/04/04 02:23:59;;;;;;;;;;;;;;;4.34;nan;103097.28;5029891;28;19917;-80
2023/04/04 02:26:24;;;;;;;;;;;;;;;4.30;nan;103090.59;5026596;28;19951;-81
2023/04/04 02:28:50;;;;;;;;;;;;;;;4.28;nan;103103.19;5027756;28;19932;-81
2023/04/04 02:31:15;;;;;;;;;;;;;;;4.28;nan;103092.56;5030236;28;19917;-80
2023/04/04 02:33:41;;;;;;;;;;;;;;;4.31;nan;103094.06;5028342;28;19924;-81
2023/04/04 02:36:06;;;;;;;;;;;;;;;4.32;nan;103098.44;5029190;28;19932;-80
2023/04/04 02:38:32;;;;;;;;;;;;;;;4.29;nan;103088.91;5028253;28;19975;-81
2023/04/04 02:40:57;;;;;;;;;;;;;;;4.31;nan;103091.44;5029869;28;19917;-80
2023/04/04 02:43:22;;;;;;;;;;;;;;;4.31;nan;103086.13;5027707;28;20375;-81
2023/04/04 02:45:48;;;;;;;;;;;;;;;4.30;nan;103087.94;5028963;28;20450;-81
2023/04/04 02:48:14;;;;;;;;;;;;;;;4.31;nan;103078.16;5023473;28;20241;-80
2023/04/04 02:50:39;;;;;;;;;;;;;;;4.32;nan;103088.66;5026825;28;19917;-80
2023/04/04 02:53:05;;;;;;;;;;;;;;;4.30;nan;103085.28;5027639;28;19932;-80
2023/04/04 02:55:30;;;;;;;;;;;;;;;4.29;nan;103080.13;5027333;28;20019;-81
2023/04/04 02:57:56;;;;;;;;;;;;;;;4.26;nan;103081.25;5026605;28;19921;-80
2023/04/04 03:00:22;;;;;;;;;;;;;;;4.21;nan;103078.22;5025886;28;19921;-81
2023/04/04 03:02:54;;;;;;;;;;;;;;;4.12;nan;103074.63;5025187;28;19963;-81
2023/04/04 03:05:19;;;;;;;;;;;;;;;4.06;nan;103069.09;5027668;28;19920;-80
2023/04/04 03:07:45;;;;;;;;;;;;;;;4.00;nan;103072.34;5024101;28;19936;-80
2023/04/04 03:10:10;;;;;;;;;;;;;;;3.94;nan;103071.09;5025820;28;19917;-80
2023/04/04 03:12:36;;;;;;;;;;;;;;;3.88;nan;103061.09;5021301;28;19980;-80
2023/04/04 03:15:01;;;;;;;;;;;;;;;3.83;nan;103074.81;5017621;28;20375;-80
2023/04/04 03:17:28;;;;;;;;;;;;;;;3.80;nan;103064.50;5025454;28;19924;-80
2023/04/04 03:19:53;;;;;;;;;;;;;;;3.77;nan;103062.16;5025296;28;19924;-80
2023/04/04 03:22:18;;;;;;;;;;;;;;;3.77;nan;103059.50;5027273;28;19921;-80
2023/04/04 03:24:44;;;;;;;;;;;;;;;3.81;nan;103060.88;5025380;28;20437;-80
2023/04/04 03:27:10;;;;;;;;;;;;;;;3.83;nan;103058.91;5023469;28;20004;-81
2023/04/04 03:29:35;;;;;;;;;;;;;;;3.86;nan;103055.09;5007288;28;19960;-80
2023/04/04 03:32:00;;;;;;;;;;;;;;;3.88;nan;103053.13;5027938;28;19925;-80
2023/04/04 03:34:26;;;;;;;;;;;;;;;3.86;nan;103057.75;5028209;28;20165;-80
2023/04/04 03:36:52;;;;;;;;;;;;;;;3.81;nan;103050.25;5029043;28;19928;-80
2023/04/04 03:39:18;;;;;;;;;;;;;;;3.77;nan;103043.59;5026802;28;20591;-80
2023/04/04 03:41:43;;;;;;;;;;;;;;;3.77;nan;103046.25;5026641;28;19926;-81
2023/04/04 03:44:09;;;;;;;;;;;;;;;3.76;nan;103039.22;5028661;28;19928;-80
2023/04/04 03:46:34;;;;;;;;;;;;;;;3.74;nan;103038.53;5025328;28;19928;-80
2023/04/04 03:48:59;;;;;;;;;;;;;;;3.71;nan;103036.19;5026470;28;19967;-80
2023/04/04 03:51:26;;;;;;;;;;;;;;;3.68;nan;103027.72;5028464;28;20390;-80
2023/04/04 03:53:51;;;;;;;;;;;;;;;3.66;nan;103032.31;5027224;28;20052;-80
2023/04/04 03:56:17;;;;;;;;;;;;;;;3.62;nan;103023.84;5027715;28;20396;-80
2023/04/04 03:58:42;;;;;;;;;;;;;;;3.59;nan;103024.09;5025488;28;19960;-80
2023/04/04 04:01:07;;;;;;;;;;;;;;;3.55;nan;103022.72;5026051;28;20176;-80
2023/04/04 04:03:33;;;;;;;;;;;;;;;3.52;nan;103026.50;5023852;28;19920;-80
2023/04/04 04:05:59;;;;;;;;;;;;;;;3.47;nan;103026.13;5025619;28;20286;-80
2023/04/04 04:08:24;;;;;;;;;;;;;;;3.45;nan;103019.31;5026166;28;19972;-80
2023/04/04 04:10:50;;;;;;;;;;;;;;;3.39;nan;103015.41;5024450;28;19955;-80
2023/04/04 04:13:15;;;;;;;;;;;;;;;3.37;nan;103022.66;5027122;28;19925;-80
2023/04/04 04:15:40;;;;;;;;;;;;;;;3.34;nan;103023.78;5024194;28;19932;-80
2023/04/04 04:18:06;;;;;;;;;;;;;;;3.32;nan;103024.91;5025647;28;20150;-80
2023/04/04 04:20:31;;;;;;;;;;;;;;;3.28;nan;103027.03;5024534;28;20008;-80
2023/04/04 04:22:56;;;;;;;;;;;;;;;3.27;nan;103022.72;5027458;28;19925;-80
2023/04/04 04:25:22;;;;;;;;;;;;;;;3.25;nan;103019.38;5026127;28;19955;-80
2023/04/04 04:27:47;;;;;;;;;;;;;;;3.23;nan;103024.00;5026512;28;19917;-80
2023/04/04 04:30:13;;;;;;;;;;;;;;;3.21;nan;103017.13;5028666;28;20020;-80
2023/04/04 04:32:38;;;;;;;;;;;;;;;3.18;nan;103020.91;5029120;28;19917;-80
2023/04/04 04:35:04;;;;;;;;;;;;;;;3.15;nan;103015.91;5031032;28;20499;-80
2023/04/04 04:37:29;;;;;;;;;;;;;;;3.14;nan;103013.41;5010356;28;19930;-80
2023/04/04 04:39:55;;;;;;;;;;;;;;;3.13;nan;103009.91;5027640;28;19924;-80
2023/04/04 04:42:20;;;;;;;;;;;;;;;3.14;nan;103016.88;5028036;28;19928;-80
2023/04/04 04:44:46;;;;;;;;;;;;;;;3.13;nan;103009.91;5028063;28;19917;-80
2023/04/04 04:47:11;;;;;;;;;;;;;;;3.14;nan;103008.94;5030750;28;19917;-80
2023/04/04 04:49:36;;;;;;;;;;;;;;;3.15;nan;103007.97;5028362;28;19940;-80
2023/04/04 04:52:02;;;;;;;;;;;;;;;3.16;nan;103006.16;5030927;28;19929;-80
2023/04/04 04:54:27;;;;;;;;;;;;;;;3.14;nan;103008.09;5029902;28;19945;-80
2023/04/04 04:56:53;;;;;;;;;;;;;;;3.14;nan;103002.81;5030277;28;19932;-80
2023/04/04 04:59:18;;;;;;;;;;;;;;;3.14;nan;103002.81;5030975;28;19924;-79
2023/04/04 05:01:43;;;;;;;;;;;;;;;3.13;nan;103003.78;5027727;28;20145;-80
2023/04/04 05:04:09;;;;;;;;;;;;;;;3.13;nan;103009.91;5028820;28;20370;-79
2023/04/04 05:06:34;;;;;;;;;;;;;;;3.13;nan;103001.97;5028052;28;19928;-80
2023/04/04 05:08:59;;;;;;;;;;;;;;;3.15;nan;103010.59;5029020;28;19928;-80
2023/04/04 05:11:25;;;;;;;;;;;;;;;3.15;nan;103010.59;5026998;28;19921;-80
2023/04/04 05:13:50;;;;;;;;;;;;;;;3.17;nan;103007.81;5027563;28;19925;-80
2023/04/04 05:16:16;;;;;;;;;;;;;;;3.18;nan;103012.97;5029221;28;19917;-79
2023/04/04 05:18:42;;;;;;;;;;;;;;;3.23;nan;103012.53;5027850;28;20160;-80
2023/04/04 05:21:07;;;;;;;;;;;;;;;3.28;nan;103012.94;5029212;28;19948;-79
2023/04/04 05:23:32;;;;;;;;;;;;;;;3.34;nan;103017.66;5028250;28;20362;-80
2023/04/04 05:25:58;;;;;;;;;;;;;;;3.41;nan;103010.81;5030227;28;19921;-80
2023/04/04 05:28:23;;;;;;;;;;;;;;;3.48;nan;103008.41;5030982;28;19925;-80
2023/04/04 05:30:49;;;;;;;;;;;;;;;3.55;nan;103012.97;5010969;28;20169;-80
2023/04/04 05:33:14;;;;;;;;;;;;;;;3.61;nan;103012.41;5030347;28;19917;-80
2023/04/04 05:35:40;;;;;;;;;;;;;;;3.69;nan;103013.47;5026937;28;19917;-80
2023/04/04 05:38:05;;;;;;;;;;;;;;;3.79;nan;103017.75;5026622;28;19968;-80
2023/04/04 05:40:31;;;;;;;;;;;;;;;3.89;nan;103015.88;5028846;28;19917;-80
2023/04/04 05:42:57;;;;;;;;;;;;;;;3.98;nan;103018.63;5029354;28;19928;-80
2023/04/04 05:45:22;;;;;;;;;;;;;;;4.05;nan;103012.56;5030532;28;20012;-80
2023/04/04 05:47:47;;;;;;;;;;;;;;;4.15;nan;103015.16;5028199;28;20378;-81
2023/04/04 05:50:13;;;;;;;;;;;;;;;4.25;nan;103011.44;5027896;28;20555;-80
2023/04/04 05:52:38;;;;;;;;;;;;;;;4.36;nan;103013.03;5026250;28;19925;-81
2023/04/04 05:55:03;;;;;;;;;;;;;;;4.47;nan;103017.28;5009899;28;19921;-80
2023/04/04 05:57:29;;;;;;;;;;;;;;;4.59;nan;103020.53;5029034;28;19917;-81
2023/04/04 05:59:54;;;;;;;;;;;;;;;4.68;nan;103019.63;5028992;28;19924;-81
2023/04/04 06:02:20;;;;;;;;;;;;;;;4.80;nan;103021.03;5025013;28;19932;-81
2023/04/04 06:04:45;;;;;;;;;;;;;;;4.91;nan;103030.59;5010313;28;19921;-81
2023/04/04 06:07:11;;;;;;;;;;;;;;;5.00;nan;103027.81;5028107;28;19917;-81
2023/04/04 06:09:37;;;;;;;;;;;;;;;5.09;nan;103031.38;5027394;28;20279;-81
2023/04/04 06:12:05;;;;;;;;;;;;;;;5.18;nan;103030.44;5024619;28;19917;-81
2023/04/04 06:14:30;;;;;;;;;;;;;;;5.27;nan;103032.16;5009073;28;20421;-81
2023/04/04 06:16:56;;;;;;;;;;;;;;;5.37;nan;103038.19;5026467;28;19917;-81
2023/04/04 06:19:22;;;;;;;;;;;;;;;5.48;nan;103037.09;5025641;28;20010;-82
2023/04/04 06:21:47;;;;;;;;;;;;;;;5.60;nan;103025.19;5025611;28;20417;-82
2023/04/04 06:24:12;;;;;;;;;;;;;;;5.69;nan;103024.22;5026943;28;19917;-82
2023/04/04 06:26:38;;;;;;;;;;;;;;;5.80;nan;103028.44;5026184;28;20443;-82
2023/04/04 06:29:05;;;;;;;;;;;;;;;5.91;nan;103022.00;5025544;28;21337;-82
2023/04/04 06:31:30;;;;;;;;;;;;;;;6.03;nan;103024.19;5029200;28;19923;-82
2023/04/04 06:33:56;;;;;;;;;;;;;;;6.15;nan;103030.06;5026146;28;19923;-82
2023/04/04 06:36:21;;;;;;;;;;;;;;;6.26;nan;103027.06;5025571;28;20276;-82
2023/04/04 06:38:47;;;;;;;;;;;;;;;6.41;nan;103029.09;5025104;28;19921;-82
2023/04/04 06:41:12;;;;;;;;;;;;;;;6.54;nan;103026.78;5026310;28;20011;-82
2023/04/04 06:43:37;;;;;;;;;;;;;;;6.70;nan;103026.78;5025674;28;19924;-82
2023/04/04 06:46:03;;;;;;;;;;;;;;;6.82;nan;103028.13;5024488;28;19933;-81
2023/04/04 06:48:28;;;;;;;;;;;;;;;6.96;nan;103026.59;5006117;28;19917;-82
2023/04/04 06:50:53;;;;;;;;;;;;;;;7.12;nan;103031.91;5023965;28;19924;-82
2023/04/04 06:53:19;;;;;;;;;;;;;;;7.26;nan;103017.88;5023157;28;19928;-82
2023/04/04 06:55:44;;;;;;;;;;;;;;;7.40;nan;103018.19;5023525;28;19925;-82
2023/04/04 06:58:10;;;;;;;;;;;;;;;7.51;nan;103015.97;5025116;28;19917;-82
2023/04/04 07:00:35;;;;;;;;;;;;;;;7.65;nan;103019.75;5025423;28;19921;-82
2023/04/04 07:03:01;;;;;;;;;;;;;;;7.80;nan;103017.19;5022625;28;19921;-82
2023/04/04 07:05:26;;;;;;;;;;;;;;;7.94;nan;103011.13;5030903;28;19968;-81
2023/04/04 07:07:56;;;;;;;;;;;;;;;8.13;nan;103007.16;5036051;28;19952;-83
2023/04/04 07:10:24;;;;;;;;;;;;;;;8.30;nan;103010.56;5026273;28;19971;-81
2023/04/04 07:12:50;;;;;;;;;;;;;;;8.42;nan;103014.50;5020461;28;20383;-82
2023/04/04 07:15:16;;;;;;;;;;;;;;;8.52;nan;103008.94;5027166;28;19952;-81
2023/04/04 07:17:41;;;;;;;;;;;;;;;8.66;nan;103011.66;5025020;28;19925;-81
2023/04/04 07:20:07;;;;;;;;;;;;;;;8.81;nan;103005.53;5022732;28;20039;-81
2023/04/04 07:22:36;;;;;;;;;;;;;;;8.92;nan;103013.06;5017778;28;20405;-81
2023/04/04 07:25:01;;;;;;;;;;;;;;;9.02;nan;103011.81;5020525;28;19943;-81
2023/04/04 07:27:26;;;;;;;;;;;;;;;9.13;nan;103005.16;5020569;28;20363;-81
2023/04/04 07:29:52;;;;;;;;;;;;;;;9.21;nan;103005.09;5022285;28;19963;-81
2023/04/04 07:32:17;;;;;;;;;;;;;;;9.32;nan;102999.28;5018732;28;20450;-81
2023/04/04 07:34:43;;;;;;;;;;;;;;;9.51;nan;103003.22;5021904;28;19917;-81
2023/04/04 07:37:08;;;;;;;;;;;;;;;9.66;nan;102997.88;5023029;28;20017;-82
2023/04/04 07:39:34;;;;;;;;;;;;;;;9.82;nan;102994.97;5021975;28;20010;-81
2023/04/04 07:41:59;;;;;;;;;;;;;;;9.96;nan;102998.63;5021857;28;20387;-81
2023/04/04 07:44:24;;;;;;;;;;;;;;;10.10;nan;102994.25;5022152;28;19917;-81
2023/04/04 07:46:50;;;;;;;;;;;;;;;10.19;nan;102998.47;5021746;28;19933;-81
2023/04/04 07:49:15;;;;;;;;;;;;;;;10.31;nan;102999.66;5022292;28;19947;-81
2023/04/04 07:51:40;;;;;;;;;;;;;;;10.44;nan;102983.72;5024058;28;20399;-81
2023/04/04 07:54:06;;;;;;;;;;;;;;;10.44;nan;102985.56;5023909;28;19924;-81
2023/04/04 07:56:31;;;;;;;;;;;;;;;10.44;nan;102982.88;5024563;28;19924;-81
2023/04/04 07:58:56;;;;;;;;;;;;;;;10.49;nan;102983.97;5023752;28;19917;-81
2023/04/04 08:01:22;;;;;;;;;;;;;;;10.49;nan;102986.63;5022738;28;20012;-80
2023/04/04 08:03:48;;;;;;;;;;;;;;;10.51;nan;102981.91;5020732;28;19917;-80
2023/04/04 08:06:14;;;;;;;;;;;;;;;10.63;nan;102984.06;5022802;28;19925;-80
2023/04/04 08:08:40;;;;;;;;;;;;;;;10.72;nan;102972.16;5025188;28;20003;-81
2023/04/04 08:11:05;;;;;;;;;;;;;;;10.97;nan;102989.50;5022541;28;20012;-80
2023/04/04 08:13:30;;;;;;;;;;;;;;;11.10;nan;102981.50;5022557;28;21701;-81
2023/04/04 08:15:56;;;;;;;;;;;;;;;11.15;nan;102979.09;5021996;28;19917;-80
2023/04/04 08:18:21;;;;;;;;;;;;;;;11.30;nan;102975.44;5026398;28;19978;-80
2023/04/04 08:20:46;;;;;;;;;;;;;;;11.45;nan;102968.91;5027670;28;19921;-80
2023/04/04 08:23:12;;;;;;;;;;;;;;;11.56;nan;102975.56;5028860;28;20398;-80
2023/04/04 08:25:38;;;;;;;;;;;;;;;11.66;nan;102976.00;5027170;28;19951;-80
2023/04/04 08:28:04;;;;;;;;;;;;;;;11.75;nan;102979.34;5023642;28;20375;-80
2023/04/04 08:30:29;;;;;;;;;;;;;;;11.71;nan;102975.44;5025282;28;20371;-80
2023/04/04 08:32:55;;;;;;;;;;;;;;;11.70;nan;102979.13;5023235;28;20010;-81
2023/04/04 08:35:20;;;;;;;;;;;;;;;11.67;nan;102969.63;5025675;28;19979;-80
2023/04/04 08:37:46;;;;;;;;;;;;;;;11.77;nan;102972.75;5010483;28;19917;-81
2023/04/04 08:40:12;;;;;;;;;;;;;;;11.84;nan;102969.28;5025332;28;19981;-81
2023/04/04 08:42:39;;;;;;;;;;;;;;;11.87;nan;102966.22;5021081;28;19917;-80
2023/04/04 08:45:06;;;;;;;;;;;;;;;11.89;nan;102964.97;5025770;28;19924;-81
2023/04/04 08:47:32;;;;;;;;;;;;;;;12.08;nan;102963.38;5020043;28;19917;-81
2023/04/04 08:50:03;;;;;;;;;;;;;;;12.30;nan;102955.94;5022447;28;19987;-81
2023/04/04 08:52:29;;;;;;;;;;;;;;;12.34;nan;102955.31;5023594;28;19974;-80
2023/04/04 08:54:55;;;;;;;;;;;;;;;12.31;nan;102957.59;5025063;28;19929;-80
2023/04/04 08:57:21;;;;;;;;;;;;;;;12.19;nan;102960.06;5023443;28;20406;-80
2023/04/04 08:59:47;;;;;;;;;;;;;;;12.18;nan;102953.03;5024477;28;19917;-80
2023/04/04 09:02:21;;;;;;;;;;;;;;;12.27;nan;102948.28;5005446;28;19960;-80
2023/04/04 09:04:47;;;;;;;;;;;;;;;12.38;nan;102950.34;5025792;28;19917;-80
2023/04/04 09:07:14;;;;;;;;;;;;;;;12.44;nan;102954.09;5017294;28;19929;-81
2023/04/04 09:09:42;;;;;;;;;;;;;;;12.34;nan;102951.81;5021177;28;19917;-80
2023/04/04 09:12:08;;;;;;;;;;;;;;;12.31;nan;102954.91;5026077;28;19917;-81
2023/04/04 09:14:36;;;;;;;;;;;;;;;12.52;nan;102951.19;5029665;28;19921;-80
2023/04/04 09:17:02;;;;;;;;;;;;;;;12.82;nan;102948.91;5031850;28;19917;-80
2023/04/04 09:19:27;;;;;;;;;;;;;;;13.08;nan;102954.22;5029251;28;19925;-81
2023/04/04 09:21:53;;;;;;;;;;;;;;;13.21;nan;102948.00;5028307;28;19921;-80
2023/04/04 09:24:18;;;;;;;;;;;;;;;13.38;nan;102946.50;5033182;28;20422;-81
2023/04/04 09:26:47;;;;;;;;;;;;;;;13.60;nan;102947.00;5023544;28;20301;-81
2023/04/04 09:29:13;;;;;;;;;;;;;;;13.77;nan;102940.09;5022804;28;19998;-80
2023/04/04 09:31:38;;;;;;;;;;;;;;;13.82;nan;102939.44;5026040;28;20012;-80
2023/04/04 09:34:04;;;;;;;;;;;;;;;13.82;nan;102940.28;5026250;28;19917;-81
2023/04/04 09:36:30;;;;;;;;;;;;;;;13.93;nan;102943.31;5029498;28;19932;-80
2023/04/04 09:38:55;;;;;;;;;;;;;;;14.09;nan;102937.41;5028659;28;20089;-81
2023/04/04 09:41:21;;;;;;;;;;;;;;;14.33;nan;102931.19;5029609;28;19917;-81
2023/04/04 09:43:47;;;;;;;;;;;;;;;14.57;nan;102937.69;5028687;28;20398;-81
2023/04/04 09:46:14;;;;;;;;;;;;;;;14.71;nan;102933.78;5027792;28;19931;-81
2023/04/04 09:48:47;;;;;;;;;;;;;;;14.76;nan;102933.13;5024687;28;19928;-80
2023/04/04 09:51:12;;;;;;;;;;;;;;;14.85;nan;102933.66;5022125;28;19925;-80
2023/04/04 09:53:38;;;;;;;;;;;;;;;14.95;nan;102931.28;5022510;28;20382;-81
2023/04/04 09:56:04;;;;;;;;;;;;;;;14.93;nan;102928.00;5031943;28;19972;-81
2023/04/04 09:58:36;;;;;;;;;;;;;;;14.91;nan;102919.28;5025775;28;19971;-81
2023/04/04 10:01:02;;;;;;;;;;;;;;;14.79;nan;102913.81;5028148;28;19993;-81
2023/04/04 10:03:28;;;;;;;;;;;;;;;14.80;nan;102913.56;5031002;28;19928;-81
2023/04/04 10:06:03;;;;;;;;;;;;;;;14.90;nan;102914.91;5025581;28;19929;-81
2023/04/04 10:08:28;;;;;;;;;;;;;;;14.95;nan;102907.00;5030394;28;19917;-81
2023/04/04 10:10:57;;;;;;;;;;;;;;;15.07;nan;102918.66;5032597;28;20470;-81
2023/04/04 10:13:24;;;;;;;;;;;;;;;15.24;nan;102911.59;5031457;28;20009;-81
2023/04/04 10:15:50;;;;;;;;;;;;;;;15.37;nan;102906.06;5029776;28;19921;-82
2023/04/04 10:18:16;;;;;;;;;;;;;;;15.41;nan;102901.84;5030130;28;19927;-81
2023/04/04 10:20:42;;;;;;;;;;;;;;;15.25;nan;102905.16;5014036;28;19921;-81
2023/04/04 10:23:07;;;;;;;;;;;;;;;15.26;nan;102912.25;5029587;28;19917;-81
2023/04/04 10:25:33;;;;;;;;;;;;;;;15.43;nan;102901.59;5009434;28;19973;-81
2023/04/04 10:27:59;;;;;;;;;;;;;;;15.71;nan;102882.97;5026724;28;19947;-81
2023/04/04 10:30:24;;;;;;;;;;;;;;;15.94;nan;102901.13;5030085;28;19925;-82
2023/04/04 10:33:11;;;;;;;;;;;;;;;16.17;nan;102888.72;5031290;28;19917;-81
2023/04/04 10:35:38;;;;;;;;;;;;;;;16.38;nan;102884.59;5027532;28;19928;-81
2023/04/04 10:38:05;;;;;;;;;;;;;;;16.48;nan;102891.06;5026981;28;19917;-82
2023/04/04 10:40:34;;;;;;;;;;;;;;;16.48;nan;102882.94;5028419;28;20270;-82
2023/04/04 10:43:05;;;;;;;;;;;;;;;16.45;nan;102879.88;5031756;28;20438;-81
2023/04/04 10:45:31;;;;;;;;;;;;;;;16.41;nan;102879.53;5027339;28;19925;-82
2023/04/04 10:47:57;;;;;;;;;;;;;;;16.54;nan;102873.91;5026755;28;19917;-81
2023/04/04 10:50:22;;;;;;;;;;;;;;;16.80;nan;102867.19;5026058;28;20000;-81
2023/04/04 10:52:48;;;;;;;;;;;;;;;16.86;nan;102865.41;5032015;28;20462;-80
2023/04/04 10:55:14;;;;;;;;;;;;;;;16.88;nan;102864.13;5028753;28;20047;-81
2023/04/04 10:57:44;;;;;;;;;;;;;;;17.06;nan;102856.91;5026695;28;19921;-81
2023/04/04 11:00:11;;;;;;;;;;;;;;;17.16;nan;102854.38;5026041;28;19917;-81
2023/04/04 11:02:45;;;;;;;;;;;;;;;17.04;nan;102861.69;5032932;28;19917;-81
2023/04/04 11:05:14;;;;;;;;;;;;;;;16.90;nan;102866.59;5029028;28;20382;-81
2023/04/04 11:07:39;;;;;;;;;;;;;;;16.72;nan;102859.44;5026812;28;20008;-81
2023/04/04 11:10:19;;;;;;;;;;;;;;;16.70;nan;102856.16;5026175;28;20442;-82
2023/04/04 11:12:46;;;;;;;;;;;;;;;16.75;nan;102855.44;5011583;28;19924;-82
2023/04/04 11:15:13;;;;;;;;;;;;;;;16.81;nan;102855.28;5023751;28;19921;-81
2023/04/04 11:17:42;;;;;;;;;;;;;;;16.91;nan;102846.56;5018017;28;19917;-81
2023/04/04 11:20:14;;;;;;;;;;;;;;;17.01;nan;102841.34;5024238;28;19933;-81
2023/04/04 11:22:41;;;;;;;;;;;;;;;16.90;nan;102845.75;5026862;28;19953;-82
2023/04/04 11:25:27;;;;;;;;;;;;;;;16.86;nan;102841.03;5029317;28;19974;-82
2023/04/04 11:27:56;;;;;;;;;;;;;;;16.94;nan;102832.56;5025237;28;20045;-82
2023/04/04 11:30:21;;;;;;;;;;;;;;;17.01;nan;102826.97;5025005;28;19928;-81
2023/04/04 11:32:47;;;;;;;;;;;;;;;17.15;nan;102825.66;5030331;28;19920;-81
2023/04/04 11:35:14;;;;;;;;;;;;;;;17.16;nan;102828.09;5027663;28;19923;-81
2023/04/04 11:38:01;;;;;;;;;;;;;;;17.04;nan;102818.38;5025263;28;19921;-81
2023/04/04 11:40:36;;;;;;;;;;;;;;;17.04;nan;102823.78;5024571;28;19925;-82
2023/04/04 11:43:06;;;;;;;;;;;;;;;16.96;nan;102824.19;5032550;28;20295;-82
2023/04/04 11:45:33;;;;;;;;;;;;;;;16.89;nan;102821.63;5025335;28;19991;-82
2023/04/04 11:47:59;;;;;;;;;;;;;;;16.88;nan;102817.28;5025946;28;19921;-82
2023/04/04 11:50:25;;;;;;;;;;;;;;;16.76;nan;102821.88;5006497;28;20371;-81
2023/04/04 11:52:52;;;;;;;;;;;;;;;16.71;nan;102811.78;5030377;28;20460;-82
2023/04/04 11:55:18;;;;;;;;;;;;;;;16.86;nan;102806.66;5027260;28;19921;-81
2023/04/04 11:57:48;;;;;;;;;;;;;;;17.11;nan;102808.25;5024493;28;19917;-81
2023/04/04 12:00:28;;;;;;;;;;;;;;;17.41;nan;102797.94;5024765;28;19996;-81
2023/04/04 12:02:54;;;;;;;;;;;;;;;17.62;nan;102782.88;5028157;28;20051;-81
2023/04/04 12:05:21;;;;;;;;;;;;;;;17.77;nan;102788.59;5029604;28;20381;-82
2023/04/04 12:07:46;;;;;;;;;;;;;;;17.70;nan;102779.78;5027078;28;19932;-81
2023/04/04 12:10:12;;;;;;;;;;;;;;;17.60;nan;102785.00;5025806;28;19917;-82
2023/04/04 12:12:38;;;;;;;;;;;;;;;17.43;nan;102786.88;5025095;28;19924;-81
2023/04/04 12:15:05;;;;;;;;;;;;;;;17.22;nan;102780.25;5029584;28;20125;-82
2023/04/04 12:17:31;;;;;;;;;;;;;;;17.11;nan;102779.25;5026628;28;19927;-81
2023/04/04 12:19:56;;;;;;;;;;;;;;;17.11;nan;102776.56;5025141;28;19917;-81
2023/04/04 12:22:22;;;;;;;;;;;;;;;17.16;nan;102773.13;5025817;28;20379;-81
2023/04/04 12:24:47;;;;;;;;;;;;;;;17.14;nan;102767.94;5026772;28;19957;-81
2023/04/04 12:27:13;;;;;;;;;;;;;;;17.09;nan;102769.75;5029825;28;19921;-81
2023/04/04 12:29:39;;;;;;;;;;;;;;;16.97;nan;102771.66;5025061;28;20010;-81
2023/04/04 12:32:05;;;;;;;;;;;;;;;16.88;nan;102757.72;5022948;28;19921;-81
2023/04/04 12:34:31;;;;;;;;;;;;;;;16.94;nan;102767.56;5008283;28;19921;-81
2023/04/04 12:36:58;;;;;;;;;;;;;;;17.01;nan;102756.56;5030875;28;20179;-81
2023/04/04 12:39:27;;;;;;;;;;;;;;;17.07;nan;102751.03;5024907;28;19921;-81
2023/04/04 12:42:00;;;;;;;;;;;;;;;17.23;nan;102741.25;5025519;28;19948;-81
2023/04/04 12:44:29;;;;;;;;;;;;;;;17.58;nan;102737.50;5029857;28;19931;-81
2023/04/04 12:47:02;;;;;;;;;;;;;;;17.70;nan;102738.28;5029924;28;19931;-81
2023/04/04 12:49:38;;;;;;;;;;;;;;;17.55;nan;102736.13;5009577;28;19952;-82
2023/04/04 12:52:05;;;;;;;;;;;;;;;17.32;nan;102730.88;5031576;28;20082;-81
2023/04/04 12:54:31;;;;;;;;;;;;;;;17.11;nan;102741.34;5032079;28;19921;-81
2023/04/04 12:56:57;;;;;;;;;;;;;;;16.96;nan;102732.94;5034005;28;20303;-82